createdAt,value
2023-04-05T00:00:32.134Z,100.00
2023-04-05T00:03:12.282Z,100.00
2023-04-05T00:05:40.669Z,100.00
2023-04-05T00:08:18.053Z,100.00
2023-04-05T00:10:45.609Z,100.00
2023-04-05T00:13:13.169Z,100.00
2023-04-05T00:15:42.060Z,100.00
2023-04-05T00:18:21.191Z,100.00
2023-04-05T00:20:49.087Z,100.00
2023-04-05T00:23:18.255Z,100.00
2023-04-05T00:25:45.397Z,100.00
2023-04-05T00:28:12.415Z,100.00
2023-04-05T00:30:41.021Z,100.00
2023-04-05T00:33:09.073Z,100.00
2023-04-05T00:35:37.878Z,100.00
2023-04-05T00:38:05.518Z,100.00
2023-04-05T00:40:34.702Z,100.00
2023-04-05T00:43:02.729Z,100.00
2023-04-05T00:45:30.996Z,100.00
2023-04-05T00:47:58.889Z,100.00
2023-04-05T00:50:30.516Z,100.00
2023-04-05T00:52:58.520Z,100.00
2023-04-05T00:55:26.217Z,100.00
2023-04-05T00:57:55.348Z,100.00
2023-04-05T01:00:22.713Z,100.00
2023-04-05T01:02:52.945Z,100.00
2023-04-05T01:05:25.217Z,100.00
2023-04-05T01:07:54.905Z,100.00
2023-04-05T01:10:22.354Z,100.00
2023-04-05T01:12:49.720Z,100.00
2023-04-05T01:15:18.597Z,100.00
2023-04-05T01:17:46.679Z,100.00
2023-04-05T01:20:15.005Z,100.00
2023-04-05T01:22:43.022Z,100.00
2023-04-05T01:25:30.561Z,100.00
2023-04-05T01:27:58.406Z,100.00
2023-04-05T01:30:32.413Z,100.00
2023-04-05T01:33:13.940Z,100.00
2023-04-05T01:35:53.461Z,100.00
2023-04-05T01:38:27.363Z,100.00
2023-04-05T01:40:55.223Z,100.00
2023-04-05T01:43:25.212Z,100.00
2023-04-05T01:45:52.691Z,100.00
2023-04-05T01:48:20.714Z,100.00
2023-04-05T01:50:48.221Z,100.00
2023-04-05T01:53:15.675Z,100.00
2023-04-05T01:55:43.959Z,100.00
2023-04-05T01:58:11.510Z,100.00
2023-04-05T02:00:39.263Z,100.00
2023-04-05T02:03:06.844Z,100.00
2023-04-05T02:05:34.223Z,100.00
2023-04-05T02:08:05.631Z,100.00
2023-04-05T02:10:33.196Z,100.00
2023-04-05T02:13:00.989Z,100.00
2023-04-05T02:15:29.678Z,100.00
2023-04-05T02:18:01.709Z,100.00
2023-04-05T02:20:29.168Z,100.00
2023-04-05T02:22:56.316Z,100.00
2023-04-05T02:25:24.089Z,100.00
2023-04-05T02:27:51.433Z,100.00
2023-04-05T02:30:19.302Z,100.00
2023-04-05T02:32:46.637Z,100.00
2023-04-05T02:35:17.902Z,100.00
2023-04-05T02:37:45.252Z,100.00
2023-04-05T02:40:13.121Z,100.00
2023-04-05T02:42:42.217Z,100.00
2023-04-05T02:45:10.191Z,100.00
2023-04-05T02:47:38.125Z,100.00
2023-04-05T02:50:06.431Z,100.00
2023-04-05T02:52:41.503Z,100.00
2023-04-05T02:55:09.264Z,100.00
2023-04-05T02:57:37.091Z,100.00
2023-04-05T03:00:13.045Z,100.00
2023-04-05T03:02:40.551Z,100.00
2023-04-05T03:05:08.983Z,100.00
2023-04-05T03:07:37.738Z,100.00
2023-04-05T03:10:07.888Z,100.00
2023-04-05T03:12:36.296Z,100.00
2023-04-05T03:15:05.364Z,100.00
2023-04-05T03:17:37.252Z,100.00
2023-04-05T03:20:09.192Z,100.00
2023-04-05T03:22:37.667Z,100.00
2023-04-05T03:25:06.153Z,100.00
2023-04-05T03:27:36.270Z,100.00
2023-04-05T03:30:10.558Z,100.00
2023-04-05T03:33:02.463Z,100.00
2023-04-05T03:35:59.100Z,100.00
2023-04-05T03:38:28.149Z,100.00
2023-04-05T03:41:25.505Z,100.00
2023-04-05T03:43:52.961Z,100.00
2023-04-05T03:46:22.044Z,100.00
2023-04-05T03:48:49.203Z,100.00
2023-04-05T03:51:18.504Z,100.00
2023-04-05T03:53:50.978Z,100.00
2023-04-05T03:56:18.333Z,100.00
2023-04-05T03:58:51.783Z,100.00
2023-04-05T04:01:22.405Z,100.00
2023-04-05T04:03:50.120Z,100.00
2023-04-05T04:06:19.369Z,100.00
2023-04-05T04:08:47.320Z,100.00
2023-04-05T04:11:15.665Z,100.00
2023-04-05T04:13:45.211Z,100.00
2023-04-05T04:16:21.841Z,100.00
2023-04-05T04:18:55.246Z,100.00
2023-04-05T04:21:51.684Z,100.00
2023-04-05T04:24:45.752Z,100.00
2023-04-05T04:27:35.224Z,100.00
2023-04-05T04:30:24.635Z,100.00
2023-04-05T04:33:14.482Z,100.00
2023-04-05T04:35:55.014Z,100.00
2023-04-05T04:38:44.215Z,100.00
2023-04-05T04:41:33.679Z,100.00
2023-04-05T04:44:14.672Z,100.00
2023-04-05T04:47:17.132Z,100.00
2023-04-05T04:49:52.575Z,100.00
2023-04-05T04:52:20.337Z,100.00
2023-04-05T04:54:47.689Z,100.00
2023-04-05T04:57:16.491Z,100.00
2023-04-05T04:59:43.973Z,100.00
2023-04-05T05:02:18.258Z,100.00
2023-04-05T05:04:45.977Z,100.00
2023-04-05T05:07:15.030Z,100.00
2023-04-05T05:09:43.809Z,100.00
2023-04-05T05:12:13.209Z,100.00
2023-04-05T05:14:40.681Z,100.00
2023-04-05T05:17:08.327Z,100.00
2023-04-05T05:19:36.701Z,100.00
2023-04-05T05:22:04.167Z,100.00
2023-04-05T05:24:31.853Z,100.00
2023-04-05T05:26:59.377Z,100.00
2023-04-05T05:29:32.796Z,100.00
2023-04-05T05:32:00.445Z,100.00
2023-04-05T05:34:28.099Z,100.00
2023-04-05T05:37:01.741Z,100.00
2023-04-05T05:39:29.548Z,100.00
2023-04-05T05:41:57.960Z,100.00
2023-04-05T05:44:25.450Z,100.00
2023-04-05T05:46:52.855Z,100.00
2023-04-05T05:49:20.414Z,100.00
2023-04-05T05:51:52.605Z,100.00
2023-04-05T05:54:20.454Z,100.00
2023-04-05T05:56:47.804Z,100.00
2023-04-05T05:59:16.324Z,100.00
2023-04-05T06:01:46.161Z,100.00
2023-04-05T06:04:13.414Z,100.00
2023-04-05T06:06:43.467Z,100.00
2023-04-05T06:09:11.230Z,100.00
2023-04-05T06:11:53.230Z,100.00
2023-04-05T06:14:24.075Z,100.00
2023-04-05T06:16:53.292Z,100.00
2023-04-05T06:19:20.929Z,100.00
2023-04-05T06:21:48.308Z,100.00
2023-04-05T06:24:15.948Z,100.00
2023-04-05T06:26:43.118Z,100.00
2023-04-05T06:29:11.814Z,100.00
2023-04-05T06:31:42.224Z,100.00
2023-04-05T06:34:09.749Z,100.00
2023-04-05T06:36:47.094Z,100.00
2023-04-05T06:39:14.493Z,100.00
2023-04-05T06:41:42.061Z,100.00
2023-04-05T06:44:09.316Z,100.00
2023-04-05T06:46:36.668Z,100.00
2023-04-05T06:49:04.370Z,100.00
2023-04-05T06:51:31.676Z,100.00
2023-04-05T06:54:00.481Z,100.00
2023-04-05T06:56:28.576Z,100.00
2023-04-05T06:58:57.704Z,100.00
2023-04-05T07:01:25.853Z,100.00
2023-04-05T07:03:56.586Z,100.00
2023-04-05T07:06:25.249Z,100.00
2023-04-05T07:08:53.194Z,100.00
2023-04-05T07:11:21.192Z,100.00
2023-04-05T07:13:48.476Z,100.00
2023-04-05T07:16:22.842Z,100.00
2023-04-05T07:18:50.802Z,100.00
2023-04-05T07:21:18.665Z,100.00
2023-04-05T07:23:50.318Z,100.00
2023-04-05T07:26:18.208Z,100.00
2023-04-05T07:28:46.061Z,100.00
2023-04-05T07:31:14.224Z,100.00
2023-04-05T07:33:42.109Z,100.00
2023-04-05T07:36:09.897Z,100.00
2023-04-05T07:38:37.318Z,100.00
2023-04-05T07:41:04.846Z,100.00
2023-04-05T07:43:32.330Z,100.00
2023-04-05T07:46:00.947Z,100.00
2023-04-05T07:48:28.885Z,100.00
2023-04-05T07:51:02.630Z,100.00
2023-04-05T07:53:30.767Z,100.00
2023-04-05T07:55:58.821Z,100.00
2023-04-05T07:58:30.070Z,100.00
2023-04-05T08:01:01.020Z,100.00
2023-04-05T08:03:29.594Z,100.00
2023-04-05T08:05:57.781Z,100.00
2023-04-05T08:08:25.266Z,100.00
2023-04-05T08:10:53.601Z,100.00
2023-04-05T08:13:23.220Z,100.00
2023-04-05T08:15:50.811Z,100.00
2023-04-05T08:18:21.194Z,100.00
2023-04-05T08:20:51.932Z,100.00
2023-04-05T08:23:19.383Z,100.00
2023-04-05T08:25:47.049Z,100.00
2023-04-05T08:28:14.812Z,100.00
2023-04-05T08:30:42.796Z,100.00
2023-04-05T08:33:11.902Z,100.00
2023-04-05T08:35:39.274Z,100.00
2023-04-05T08:38:07.396Z,100.00
2023-04-05T08:40:44.224Z,100.00
2023-04-05T08:43:21.078Z,100.00
2023-04-05T08:45:52.137Z,100.00
2023-04-05T08:48:20.984Z,100.00
2023-04-05T08:50:51.882Z,100.00
2023-04-05T08:53:20.114Z,100.00
2023-04-05T08:55:49.463Z,100.00
2023-04-05T08:58:17.572Z,100.00
2023-04-05T09:00:45.945Z,100.00
2023-04-05T09:03:23.219Z,100.00
2023-04-05T09:05:51.735Z,100.00
2023-04-05T09:08:21.030Z,100.00
2023-04-05T09:10:49.599Z,100.00
2023-04-05T09:13:17.674Z,100.00
2023-04-05T09:15:46.461Z,100.00
2023-04-05T09:18:25.421Z,100.00
2023-04-05T09:21:04.740Z,100.00
2023-04-05T09:23:36.633Z,100.00
2023-04-05T09:26:21.070Z,100.00
2023-04-05T09:28:50.345Z,100.00
2023-04-05T09:31:33.566Z,100.00
2023-04-05T09:34:04.726Z,100.00
2023-04-05T09:36:33.235Z,100.00
2023-04-05T09:39:04.945Z,100.00
2023-04-05T09:41:32.746Z,100.00
2023-04-05T09:44:00.752Z,100.00
2023-04-05T09:46:33.628Z,100.00
2023-04-05T09:49:02.053Z,100.00
2023-04-05T09:51:33.296Z,100.00
2023-04-05T09:54:01.632Z,100.00
2023-04-05T09:56:31.387Z,100.00
2023-04-05T09:59:01.209Z,100.00
2023-04-05T10:01:30.197Z,100.00
2023-04-05T10:03:59.681Z,100.00
2023-04-05T10:06:40.255Z,100.00
2023-04-05T10:09:09.070Z,100.00
2023-04-05T10:11:37.221Z,100.00
2023-04-05T10:14:05.592Z,100.00
2023-04-05T10:16:34.212Z,100.00
2023-04-05T10:19:02.847Z,100.00
2023-04-05T10:21:33.087Z,100.00
2023-04-05T10:24:08.511Z,100.00
2023-04-05T10:26:45.220Z,100.00
2023-04-05T10:29:13.289Z,100.00
2023-04-05T10:31:51.730Z,100.00
2023-04-05T10:34:28.443Z,100.00
2023-04-05T10:37:00.620Z,100.00
2023-04-05T10:39:41.388Z,100.00
2023-04-05T10:42:12.027Z,100.00
2023-04-05T10:44:39.357Z,100.00
2023-04-05T10:47:06.919Z,100.00
2023-04-05T10:49:37.581Z,100.00
2023-04-05T10:52:05.616Z,99.77
2023-04-05T10:54:34.414Z,97.91
2023-04-05T10:57:10.976Z,96.96
2023-04-05T10:59:42.824Z,96.46
2023-04-05T11:02:10.977Z,97.03
2023-04-05T11:04:41.039Z,97.30
2023-04-05T11:07:13.127Z,99.06
2023-04-05T11:09:52.856Z,99.90
2023-04-05T11:12:20.400Z,100.00
2023-04-05T11:14:47.898Z,100.00
2023-04-05T11:17:24.674Z,100.00
2023-04-05T11:19:52.911Z,100.00
2023-04-05T11:22:29.584Z,100.00
2023-04-05T11:24:58.299Z,100.00
2023-04-05T11:27:27.392Z,100.00
2023-04-05T11:29:57.588Z,100.00
2023-04-05T11:32:37.803Z,100.00
2023-04-05T11:35:05.853Z,100.00
2023-04-05T11:37:52.484Z,100.00
2023-04-05T11:40:46.392Z,100.00
2023-04-05T11:43:13.755Z,100.00
2023-04-05T11:45:46.661Z,100.00
2023-04-05T11:48:15.008Z,100.00
2023-04-05T11:50:42.577Z,100.00
2023-04-05T11:53:10.920Z,100.00
2023-04-05T11:55:38.943Z,100.00
2023-04-05T11:58:20.815Z,100.00
2023-04-05T12:01:01.688Z,100.00
2023-04-05T12:03:33.611Z,100.00
2023-04-05T12:06:02.107Z,100.00
2023-04-05T12:08:42.587Z,100.00
2023-04-05T12:11:11.270Z,100.00
2023-04-05T12:13:39.879Z,100.00
2023-04-05T12:16:07.830Z,100.00
2023-04-05T12:18:36.204Z,100.00
2023-04-05T12:21:08.465Z,100.00
2023-04-05T12:23:36.847Z,100.00
2023-04-05T12:26:05.836Z,100.00
2023-04-05T12:28:49.476Z,100.00
2023-04-05T12:31:16.933Z,100.00
2023-04-05T12:33:44.396Z,100.00
2023-04-05T12:36:12.513Z,100.00
2023-04-05T12:38:40.223Z,100.00
2023-04-05T12:41:07.578Z,100.00
2023-04-05T12:43:40.663Z,100.00
2023-04-05T12:46:11.741Z,100.00
2023-04-05T12:48:40.083Z,100.00
2023-04-05T12:51:15.731Z,100.00
2023-04-05T12:53:49.062Z,100.00
2023-04-05T12:56:16.397Z,100.00
2023-04-05T12:58:45.786Z,100.00
2023-04-05T13:01:13.178Z,100.00
2023-04-05T13:03:43.324Z,100.00
2023-04-05T13:06:10.619Z,100.00
2023-04-05T13:08:38.273Z,100.00
2023-04-05T13:11:05.720Z,100.00
2023-04-05T13:13:33.815Z,99.93
2023-04-05T13:16:01.184Z,100.00
2023-04-05T13:18:29.088Z,100.00
2023-04-05T13:20:56.587Z,100.00
2023-04-05T13:23:24.042Z,100.00
2023-04-05T13:25:51.341Z,100.00
2023-04-05T13:28:18.762Z,100.00
2023-04-05T13:30:47.336Z,100.00
2023-04-05T13:33:16.034Z,100.00
2023-04-05T13:35:44.311Z,100.00
2023-04-05T13:38:12.162Z,100.00
2023-04-05T13:40:39.611Z,100.00
2023-04-05T13:43:06.769Z,100.00
2023-04-05T13:45:34.740Z,100.00
2023-04-05T13:48:03.164Z,100.00
2023-04-05T13:50:33.227Z,100.00
2023-04-05T13:53:00.892Z,100.00
2023-04-05T13:55:28.774Z,100.00
2023-04-05T13:57:56.149Z,100.00
2023-04-05T14:00:23.919Z,100.00
2023-04-05T14:02:51.523Z,100.00
2023-04-05T14:05:18.721Z,100.00
2023-04-05T14:07:46.349Z,100.00
2023-04-05T14:10:16.605Z,100.00
2023-04-05T14:12:45.050Z,100.00
2023-04-05T14:15:12.712Z,100.00
2023-04-05T14:17:47.077Z,100.00
2023-04-05T14:20:14.992Z,100.00
2023-04-05T14:22:42.557Z,100.00
2023-04-05T14:25:10.108Z,100.00
2023-04-05T14:27:41.701Z,100.00
2023-04-05T14:30:10.801Z,100.00
2023-04-05T14:32:41.522Z,100.00
2023-04-05T14:35:09.153Z,100.00
2023-04-05T14:37:36.810Z,100.00
2023-04-05T14:40:04.987Z,100.00
2023-04-05T14:42:47.929Z,100.00
2023-04-05T14:45:17.563Z,100.00
2023-04-05T14:47:45.107Z,100.00
2023-04-05T14:50:18.675Z,100.00
2023-04-05T14:52:46.451Z,100.00
2023-04-05T14:55:14.009Z,100.00
2023-04-05T14:57:41.564Z,100.00
2023-04-05T15:00:09.625Z,100.00
2023-04-05T15:02:57.614Z,100.00
2023-04-05T15:05:25.238Z,100.00
2023-04-05T15:07:52.577Z,100.00
2023-04-05T15:10:27.099Z,100.00
2023-04-05T15:12:54.966Z,100.00
2023-04-05T15:15:22.398Z,100.00
2023-04-05T15:17:50.634Z,100.00
2023-04-05T15:20:18.041Z,100.00
2023-04-05T15:22:45.508Z,100.00
2023-04-05T15:25:12.969Z,100.00
2023-04-05T15:27:40.935Z,100.00
2023-04-05T15:30:09.008Z,100.00
2023-04-05T15:32:37.916Z,100.00
2023-04-05T15:35:05.775Z,100.00
2023-04-05T15:37:33.315Z,100.00
2023-04-05T15:40:03.187Z,100.00
2023-04-05T15:42:31.833Z,100.00
2023-04-05T15:45:00.251Z,100.00
2023-04-05T15:47:27.776Z,100.00
2023-04-05T15:49:55.106Z,100.00
2023-04-05T15:52:22.459Z,100.00
2023-04-05T15:54:49.923Z,100.00
2023-04-05T15:57:17.268Z,100.00
2023-04-05T15:59:44.840Z,100.00
2023-04-05T16:02:12.179Z,100.00
2023-04-05T16:04:40.049Z,100.00
2023-04-05T16:07:08.740Z,100.00
2023-04-05T16:09:36.602Z,100.00
2023-04-05T16:12:04.058Z,100.00
2023-04-05T16:14:33.068Z,100.00
2023-04-05T16:17:04.147Z,100.00
2023-04-05T16:19:31.754Z,100.00
2023-04-05T16:22:00.544Z,100.00
2023-04-05T16:24:28.002Z,100.00
2023-04-05T16:26:56.377Z,100.00
2023-04-05T16:29:24.457Z,100.00
2023-04-05T16:31:52.494Z,100.00
2023-04-05T16:34:21.624Z,100.00
2023-04-05T16:36:49.038Z,100.00
2023-04-05T16:39:16.525Z,100.00
2023-04-05T16:41:45.931Z,100.00
2023-04-05T16:44:13.339Z,100.00
2023-04-05T16:46:41.067Z,100.00
2023-04-05T16:49:09.528Z,100.00
2023-04-05T16:51:42.216Z,100.00
2023-04-05T16:54:09.677Z,100.00
2023-04-05T16:56:38.554Z,100.00
2023-04-05T16:59:07.702Z,100.00
2023-04-05T17:01:36.100Z,100.00
2023-04-05T17:04:04.698Z,100.00
2023-04-05T17:06:33.294Z,100.00
2023-04-05T17:09:00.939Z,100.00
2023-04-05T17:11:28.924Z,100.00
2023-04-05T17:13:58.871Z,100.00
2023-04-05T17:16:26.315Z,100.00
2023-04-05T17:18:53.851Z,100.00
2023-04-05T17:21:22.747Z,100.00
2023-04-05T17:23:50.208Z,100.00
2023-04-05T17:26:17.762Z,100.00
2023-04-05T17:28:45.745Z,100.00
2023-04-05T17:31:13.426Z,100.00
2023-04-05T17:33:48.592Z,100.00
2023-04-05T17:36:17.289Z,100.00
2023-04-05T17:38:44.509Z,100.00
2023-04-05T17:41:12.332Z,100.00
2023-04-05T17:43:40.299Z,100.00
2023-04-05T17:46:10.038Z,100.00
2023-04-05T17:48:37.801Z,100.00
2023-04-05T17:51:07.488Z,100.00
2023-04-05T17:53:36.063Z,100.00
2023-04-05T17:56:03.432Z,100.00
2023-04-05T17:58:32.015Z,100.00
2023-04-05T18:00:59.885Z,100.00
2023-04-05T18:03:27.794Z,100.00
2023-04-05T18:05:56.115Z,100.00
2023-04-05T18:08:26.136Z,100.00
2023-04-05T18:10:59.644Z,100.00
2023-04-05T18:13:27.097Z,100.00
2023-04-05T18:15:56.250Z,100.00
2023-04-05T18:18:25.735Z,100.00
2023-04-05T18:20:53.867Z,100.00
2023-04-05T18:23:24.376Z,100.00
2023-04-05T18:25:55.167Z,100.00
2023-04-05T18:28:23.657Z,100.00
2023-04-05T18:30:51.468Z,100.00
2023-04-05T18:33:22.350Z,100.00
2023-04-05T18:35:50.086Z,100.00
2023-04-05T18:38:18.020Z,100.00
2023-04-05T18:40:50.118Z,100.00
2023-04-05T18:43:21.448Z,100.00
2023-04-05T18:45:48.817Z,100.00
2023-04-05T18:48:17.439Z,100.00
2023-04-05T18:50:47.362Z,100.00
2023-04-05T18:53:15.059Z,100.00
2023-04-05T18:55:42.438Z,100.00
2023-04-05T18:58:09.976Z,100.00
2023-04-05T19:00:40.502Z,100.00
2023-04-05T19:03:08.206Z,100.00
2023-04-05T19:05:36.337Z,100.00
2023-04-05T19:08:04.827Z,100.00
2023-04-05T19:10:32.897Z,100.00
2023-04-05T19:13:00.152Z,100.00
2023-04-05T19:15:28.631Z,100.00
2023-04-05T19:17:57.743Z,100.00
2023-04-05T19:20:25.348Z,100.00
2023-04-05T19:22:53.736Z,100.00
2023-04-05T19:25:21.631Z,100.00
2023-04-05T19:27:49.030Z,100.00
2023-04-05T19:30:16.342Z,100.00
2023-04-05T19:33:03.834Z,100.00
2023-04-05T19:35:31.342Z,100.00
2023-04-05T19:37:59.523Z,100.00
2023-04-05T19:40:27.609Z,100.00
2023-04-05T19:43:18.186Z,100.00
2023-04-05T19:45:46.880Z,100.00
2023-04-05T19:48:36.737Z,100.00
2023-04-05T19:51:06.643Z,100.00
2023-04-05T19:53:51.769Z,100.00
2023-04-05T19:56:26.183Z,100.00
2023-04-05T19:59:02.843Z,100.00
2023-04-05T20:01:30.641Z,100.00
2023-04-05T20:03:58.590Z,100.00
2023-04-05T20:06:27.524Z,100.00
2023-04-05T20:08:59.154Z,100.00
2023-04-05T20:11:26.947Z,100.00
2023-04-05T20:13:56.748Z,100.00
2023-04-05T20:16:25.999Z,100.00
2023-04-05T20:18:56.186Z,100.00
2023-04-05T20:21:23.737Z,100.00
2023-04-05T20:23:51.758Z,100.00
2023-04-05T20:26:19.487Z,100.00
2023-04-05T20:28:52.866Z,100.00
2023-04-05T20:31:22.205Z,100.00
2023-04-05T20:33:54.237Z,100.00
2023-04-05T20:36:33.596Z,100.00
2023-04-05T20:39:01.646Z,100.00
2023-04-05T20:41:31.245Z,100.00
2023-04-05T20:43:59.115Z,100.00
2023-04-05T20:46:27.975Z,100.00
2023-04-05T20:48:58.195Z,100.00
2023-04-05T20:51:25.891Z,100.00
2023-04-05T20:53:53.344Z,100.00
2023-04-05T20:56:21.516Z,100.00
2023-04-05T20:58:48.953Z,100.00
2023-04-05T21:01:16.992Z,100.00
2023-04-05T21:03:45.784Z,100.00
2023-04-05T21:06:13.306Z,100.00
2023-04-05T21:08:41.157Z,100.00
2023-04-05T21:11:11.172Z,100.00
2023-04-05T21:13:38.945Z,100.00
2023-04-05T21:16:06.973Z,100.00
2023-04-05T21:18:35.641Z,100.00
2023-04-05T21:21:03.048Z,100.00
2023-04-05T21:23:32.081Z,100.00
2023-04-05T21:26:00.864Z,100.00
2023-04-05T21:28:27.973Z,100.00
2023-04-05T21:30:57.284Z,100.00
2023-04-05T21:33:25.443Z,100.00
2023-04-05T21:35:52.817Z,100.00
2023-04-05T21:38:20.991Z,100.00
2023-04-05T21:40:50.345Z,100.00
2023-04-05T21:43:23.368Z,100.00
2023-04-05T21:45:52.498Z,100.00
2023-04-05T21:48:20.936Z,100.00
2023-04-05T21:50:51.678Z,100.00
2023-04-05T21:53:19.743Z,100.00
2023-04-05T21:55:48.484Z,100.00
2023-04-05T21:58:17.334Z,100.00
2023-04-05T22:00:44.799Z,100.00
2023-04-05T22:03:12.458Z,100.00
2023-04-05T22:05:39.895Z,100.00
2023-04-05T22:08:07.850Z,100.00
2023-04-05T22:10:35.976Z,100.00
2023-04-05T22:13:03.281Z,100.00
2023-04-05T22:15:32.708Z,100.00
2023-04-05T22:18:01.398Z,100.00
2023-04-05T22:20:28.831Z,100.00
2023-04-05T22:22:56.192Z,100.00
2023-04-05T22:25:28.358Z,100.00
2023-04-05T22:28:00.357Z,100.00
2023-04-05T22:30:28.428Z,100.00
2023-04-05T22:33:08.791Z,100.00
2023-04-05T22:35:36.424Z,100.00
2023-04-05T22:38:06.558Z,100.00
2023-04-05T22:40:34.484Z,100.00
2023-04-05T22:43:01.697Z,100.00
2023-04-05T22:45:29.315Z,100.00
2023-04-05T22:47:56.831Z,100.00
2023-04-05T22:50:24.421Z,100.00
2023-04-05T22:52:52.078Z,100.00
2023-04-05T22:55:20.263Z,100.00
2023-04-05T22:57:47.849Z,100.00
2023-04-05T23:00:15.682Z,100.00
2023-04-05T23:02:43.077Z,100.00
2023-04-05T23:05:10.602Z,100.00
2023-04-05T23:07:38.153Z,100.00
2023-04-05T23:10:05.923Z,100.00
2023-04-05T23:12:34.294Z,100.00
2023-04-05T23:15:01.666Z,100.00
2023-04-05T23:17:29.542Z,100.00
2023-04-05T23:19:57.173Z,100.00
2023-04-05T23:22:24.653Z,100.00
2023-04-05T23:24:52.500Z,100.00
2023-04-05T23:27:20.770Z,100.00
2023-04-05T23:29:48.146Z,100.00
2023-04-05T23:32:15.685Z,100.00
2023-04-05T23:34:42.835Z,100.00
2023-04-05T23:37:10.595Z,100.00
2023-04-05T23:39:37.848Z,100.00
2023-04-05T23:42:05.819Z,100.00
2023-04-05T23:44:33.377Z,100.00
2023-04-05T23:47:00.911Z,100.00
2023-04-05T23:49:28.800Z,100.00
2023-04-05T23:51:56.265Z,100.00
2023-04-05T23:54:23.511Z,100.00
2023-04-05T23:56:51.169Z,100.00
2023-04-05T23:59:18.650Z,100.00
